sensor_id;sensor_type;location;lat;lon;timestamp;P1;durP1;ratioP1;P2;durP2;ratioP2
23995;SDS011;12207;50.076;8.848;2022-08-03T00:00:58;177.88;;;37.80;;
23995;SDS011;12207;50.076;8.848;2022-08-03T00:03:24;193.48;;;41.97;;
23995;SDS011;12207;50.076;8.848;2022-08-03T00:05:51;186.38;;;37.00;;
23995;SDS011;12207;50.076;8.848;2022-08-03T00:08:18;136.65;;;37.22;;
23995;SDS011;12207;50.076;8.848;2022-08-03T00:10:45;171.52;;;36.90;;
23995;SDS011;12207;50.076;8.848;2022-08-03T00:13:12;157.82;;;37.28;;
23995;SDS011;12207;50.076;8.848;2022-08-03T00:15:39;166.15;;;36.33;;
23995;SDS011;12207;50.076;8.848;2022-08-03T00:18:07;157.88;;;36.80;;
23995;SDS011;12207;50.076;8.848;2022-08-03T00:20:34;199.77;;;42.55;;
23995;SDS011;12207;50.076;8.848;2022-08-03T00:23:01;141.02;;;35.92;;
23995;SDS011;12207;50.076;8.848;2022-08-03T00:25:28;140.52;;;34.38;;
23995;SDS011;12207;50.076;8.848;2022-08-03T00:27:55;149.82;;;35.83;;
23995;SDS011;12207;50.076;8.848;2022-08-03T00:30:22;163.50;;;34.35;;
23995;SDS011;12207;50.076;8.848;2022-08-03T00:32:49;139.38;;;30.65;;
23995;SDS011;12207;50.076;8.848;2022-08-03T00:35:16;165.68;;;30.33;;
23995;SDS011;12207;50.076;8.848;2022-08-03T00:37:42;148.70;;;31.33;;
23995;SDS011;12207;50.076;8.848;2022-08-03T00:40:12;151.68;;;32.00;;
23995;SDS011;12207;50.076;8.848;2022-08-03T00:45:16;151.77;;;28.23;;
23995;SDS011;12207;50.076;8.848;2022-08-03T00:47:51;178.50;;;32.72;;
23995;SDS011;12207;50.076;8.848;2022-08-03T00:50:18;160.02;;;31.25;;
23995;SDS011;12207;50.076;8.848;2022-08-03T00:52:47;161.68;;;31.75;;
23995;SDS011;12207;50.076;8.848;2022-08-03T00:55:14;157.93;;;28.08;;
23995;SDS011;12207;50.076;8.848;2022-08-03T00:57:41;135.88;;;26.98;;
23995;SDS011;12207;50.076;8.848;2022-08-03T01:00:10;154.52;;;28.45;;
23995;SDS011;12207;50.076;8.848;2022-08-03T01:02:38;155.73;;;27.02;;
23995;SDS011;12207;50.076;8.848;2022-08-03T01:05:07;165.70;;;27.23;;
23995;SDS011;12207;50.076;8.848;2022-08-03T01:12:58;173.23;;;26.33;;
23995;SDS011;12207;50.076;8.848;2022-08-03T01:15:45;147.07;;;24.23;;
23995;SDS011;12207;50.076;8.848;2022-08-03T01:21:33;170.95;;;23.90;;
23995;SDS011;12207;50.076;8.848;2022-08-03T01:27:12;152.50;;;21.90;;
23995;SDS011;12207;50.076;8.848;2022-08-03T01:30:01;141.55;;;22.50;;
23995;SDS011;12207;50.076;8.848;2022-08-03T01:32:53;134.52;;;20.10;;
23995;SDS011;12207;50.076;8.848;2022-08-03T01:36:25;150.20;;;19.08;;
23995;SDS011;12207;50.076;8.848;2022-08-03T01:38:23;179.75;;;20.88;;
23995;SDS011;12207;50.076;8.848;2022-08-03T01:41:04;138.73;;;20.77;;
23995;SDS011;12207;50.076;8.848;2022-08-03T01:43:35;187.38;;;25.08;;
23995;SDS011;12207;50.076;8.848;2022-08-03T01:46:05;156.75;;;24.35;;
23995;SDS011;12207;50.076;8.848;2022-08-03T01:48:35;152.20;;;24.00;;
23995;SDS011;12207;50.076;8.848;2022-08-03T01:51:04;147.65;;;33.05;;
23995;SDS011;12207;50.076;8.848;2022-08-03T01:53:33;159.55;;;29.60;;
23995;SDS011;12207;50.076;8.848;2022-08-03T01:56:03;147.27;;;26.85;;
23995;SDS011;12207;50.076;8.848;2022-08-03T01:58:30;166.05;;;28.23;;
23995;SDS011;12207;50.076;8.848;2022-08-03T02:00:59;177.88;;;26.70;;
23995;SDS011;12207;50.076;8.848;2022-08-03T02:03:28;150.40;;;26.08;;
23995;SDS011;12207;50.076;8.848;2022-08-03T02:05:56;168.77;;;24.88;;
23995;SDS011;12207;50.076;8.848;2022-08-03T02:08:24;146.90;;;24.00;;
23995;SDS011;12207;50.076;8.848;2022-08-03T02:10:54;165.95;;;24.40;;
23995;SDS011;12207;50.076;8.848;2022-08-03T02:13:23;163.95;;;24.45;;
23995;SDS011;12207;50.076;8.848;2022-08-03T02:15:51;148.65;;;19.58;;
23995;SDS011;12207;50.076;8.848;2022-08-03T02:18:19;162.25;;;26.75;;
23995;SDS011;12207;50.076;8.848;2022-08-03T02:20:47;147.18;;;21.48;;
23995;SDS011;12207;50.076;8.848;2022-08-03T02:23:15;145.05;;;19.80;;
23995;SDS011;12207;50.076;8.848;2022-08-03T02:25:52;125.72;;;18.83;;
23995;SDS011;12207;50.076;8.848;2022-08-03T02:28:25;130.52;;;19.55;;
23995;SDS011;12207;50.076;8.848;2022-08-03T02:33:29;125.20;;;18.15;;
23995;SDS011;12207;50.076;8.848;2022-08-03T02:36:05;138.52;;;21.38;;
23995;SDS011;12207;50.076;8.848;2022-08-03T02:38:36;123.78;;;21.20;;
23995;SDS011;12207;50.076;8.848;2022-08-03T02:41:06;129.15;;;22.48;;
23995;SDS011;12207;50.076;8.848;2022-08-03T02:43:38;141.20;;;18.88;;
23995;SDS011;12207;50.076;8.848;2022-08-03T02:46:08;112.55;;;18.13;;
23995;SDS011;12207;50.076;8.848;2022-08-03T02:48:37;125.60;;;18.30;;
23995;SDS011;12207;50.076;8.848;2022-08-03T02:51:06;127.10;;;16.48;;
23995;SDS011;12207;50.076;8.848;2022-08-03T02:53:33;122.80;;;12.73;;
23995;SDS011;12207;50.076;8.848;2022-08-03T02:56:00;152.95;;;17.00;;
23995;SDS011;12207;50.076;8.848;2022-08-03T02:58:28;143.93;;;15.98;;
23995;SDS011;12207;50.076;8.848;2022-08-03T03:00:56;148.85;;;17.75;;
23995;SDS011;12207;50.076;8.848;2022-08-03T03:03:24;119.80;;;14.25;;
23995;SDS011;12207;50.076;8.848;2022-08-03T03:05:52;173.07;;;17.60;;
23995;SDS011;12207;50.076;8.848;2022-08-03T03:08:20;145.52;;;15.40;;
23995;SDS011;12207;50.076;8.848;2022-08-03T03:10:47;142.18;;;14.55;;
23995;SDS011;12207;50.076;8.848;2022-08-03T03:13:14;151.65;;;14.93;;
23995;SDS011;12207;50.076;8.848;2022-08-03T03:15:42;121.45;;;13.65;;
23995;SDS011;12207;50.076;8.848;2022-08-03T03:18:11;142.38;;;13.38;;
23995;SDS011;12207;50.076;8.848;2022-08-03T03:20:40;167.80;;;15.55;;
23995;SDS011;12207;50.076;8.848;2022-08-03T03:23:09;147.55;;;14.60;;
23995;SDS011;12207;50.076;8.848;2022-08-03T03:25:36;97.03;;;10.52;;
23995;SDS011;12207;50.076;8.848;2022-08-03T03:28:04;174.95;;;15.68;;
23995;SDS011;12207;50.076;8.848;2022-08-03T03:30:31;126.93;;;12.18;;
23995;SDS011;12207;50.076;8.848;2022-08-03T03:32:58;140.65;;;13.20;;
23995;SDS011;12207;50.076;8.848;2022-08-03T03:35:25;141.05;;;13.23;;
23995;SDS011;12207;50.076;8.848;2022-08-03T03:37:53;141.10;;;13.13;;
23995;SDS011;12207;50.076;8.848;2022-08-03T03:40:20;137.88;;;14.23;;
23995;SDS011;12207;50.076;8.848;2022-08-03T03:42:47;155.63;;;15.25;;
23995;SDS011;12207;50.076;8.848;2022-08-03T03:45:15;126.72;;;12.70;;
23995;SDS011;12207;50.076;8.848;2022-08-03T03:47:42;136.88;;;13.38;;
23995;SDS011;12207;50.076;8.848;2022-08-03T03:50:09;150.30;;;13.77;;
23995;SDS011;12207;50.076;8.848;2022-08-03T03:52:36;155.02;;;14.50;;
23995;SDS011;12207;50.076;8.848;2022-08-03T03:55:02;118.55;;;10.90;;
23995;SDS011;12207;50.076;8.848;2022-08-03T03:57:29;125.78;;;12.48;;
23995;SDS011;12207;50.076;8.848;2022-08-03T03:59:56;301.80;;;22.67;;
23995;SDS011;12207;50.076;8.848;2022-08-03T04:02:23;255.10;;;19.67;;
23995;SDS011;12207;50.076;8.848;2022-08-03T04:04:50;236.82;;;19.00;;
23995;SDS011;12207;50.076;8.848;2022-08-03T04:07:41;247.05;;;18.67;;
23995;SDS011;12207;50.076;8.848;2022-08-03T04:10:34;310.42;;;22.60;;
23995;SDS011;12207;50.076;8.848;2022-08-03T04:13:22;252.18;;;19.13;;
23995;SDS011;12207;50.076;8.848;2022-08-03T04:15:59;261.27;;;20.05;;
23995;SDS011;12207;50.076;8.848;2022-08-03T04:18:28;295.42;;;22.40;;
23995;SDS011;12207;50.076;8.848;2022-08-03T04:21:00;164.50;;;14.18;;
23995;SDS011;12207;50.076;8.848;2022-08-03T04:23:30;247.43;;;18.52;;
23995;SDS011;12207;50.076;8.848;2022-08-03T04:26:00;245.82;;;19.73;;
23995;SDS011;12207;50.076;8.848;2022-08-03T04:28:30;264.05;;;21.02;;
23995;SDS011;12207;50.076;8.848;2022-08-03T04:30:59;260.73;;;20.38;;
23995;SDS011;12207;50.076;8.848;2022-08-03T04:33:28;248.25;;;19.60;;
23995;SDS011;12207;50.076;8.848;2022-08-03T04:35:59;275.13;;;22.45;;
23995;SDS011;12207;50.076;8.848;2022-08-03T04:38:29;269.02;;;21.67;;
23995;SDS011;12207;50.076;8.848;2022-08-03T04:40:58;253.27;;;21.40;;
23995;SDS011;12207;50.076;8.848;2022-08-03T04:43:25;205.82;;;22.20;;
23995;SDS011;12207;50.076;8.848;2022-08-03T04:45:54;232.60;;;29.13;;
23995;SDS011;12207;50.076;8.848;2022-08-03T04:48:21;247.45;;;38.85;;
23995;SDS011;12207;50.076;8.848;2022-08-03T04:50:48;240.45;;;53.88;;
23995;SDS011;12207;50.076;8.848;2022-08-03T04:53:15;225.57;;;59.85;;
23995;SDS011;12207;50.076;8.848;2022-08-03T04:55:42;267.33;;;71.22;;
23995;SDS011;12207;50.076;8.848;2022-08-03T04:58:09;314.38;;;86.80;;
23995;SDS011;12207;50.076;8.848;2022-08-03T05:00:37;411.90;;;103.25;;
23995;SDS011;12207;50.076;8.848;2022-08-03T05:03:03;338.60;;;100.72;;
23995;SDS011;12207;50.076;8.848;2022-08-03T05:05:30;347.70;;;105.50;;
23995;SDS011;12207;50.076;8.848;2022-08-03T05:07:57;363.77;;;114.72;;
23995;SDS011;12207;50.076;8.848;2022-08-03T05:10:24;362.00;;;119.93;;
23995;SDS011;12207;50.076;8.848;2022-08-03T05:12:50;370.15;;;129.02;;
23995;SDS011;12207;50.076;8.848;2022-08-03T05:15:18;381.05;;;137.77;;
23995;SDS011;12207;50.076;8.848;2022-08-03T05:17:45;393.08;;;137.82;;
23995;SDS011;12207;50.076;8.848;2022-08-03T05:20:11;391.05;;;141.57;;
23995;SDS011;12207;50.076;8.848;2022-08-03T05:22:38;403.55;;;146.85;;
23995;SDS011;12207;50.076;8.848;2022-08-03T05:25:05;426.55;;;152.77;;
23995;SDS011;12207;50.076;8.848;2022-08-03T05:27:32;486.80;;;159.98;;
23995;SDS011;12207;50.076;8.848;2022-08-03T05:29:58;471.60;;;164.27;;
23995;SDS011;12207;50.076;8.848;2022-08-03T05:32:26;467.15;;;172.98;;
23995;SDS011;12207;50.076;8.848;2022-08-03T05:34:53;456.45;;;180.43;;
23995;SDS011;12207;50.076;8.848;2022-08-03T05:37:19;450.25;;;186.07;;
23995;SDS011;12207;50.076;8.848;2022-08-03T05:39:46;443.70;;;187.23;;
23995;SDS011;12207;50.076;8.848;2022-08-03T05:42:15;458.17;;;183.82;;
23995;SDS011;12207;50.076;8.848;2022-08-03T05:44:42;465.58;;;194.00;;
23995;SDS011;12207;50.076;8.848;2022-08-03T05:47:08;466.52;;;197.45;;
23995;SDS011;12207;50.076;8.848;2022-08-03T05:49:35;483.40;;;190.73;;
23995;SDS011;12207;50.076;8.848;2022-08-03T05:52:02;497.45;;;191.88;;
23995;SDS011;12207;50.076;8.848;2022-08-03T05:54:29;432.60;;;175.70;;
23995;SDS011;12207;50.076;8.848;2022-08-03T05:56:56;476.13;;;178.85;;
23995;SDS011;12207;50.076;8.848;2022-08-03T05:59:22;424.10;;;183.63;;
23995;SDS011;12207;50.076;8.848;2022-08-03T06:01:50;405.23;;;182.02;;
23995;SDS011;12207;50.076;8.848;2022-08-03T06:04:17;458.75;;;193.00;;
23995;SDS011;12207;50.076;8.848;2022-08-03T06:06:44;440.83;;;189.68;;
23995;SDS011;12207;50.076;8.848;2022-08-03T06:09:11;472.95;;;188.20;;
23995;SDS011;12207;50.076;8.848;2022-08-03T06:11:38;546.88;;;200.55;;
23995;SDS011;12207;50.076;8.848;2022-08-03T06:14:06;552.40;;;203.35;;
23995;SDS011;12207;50.076;8.848;2022-08-03T06:16:32;525.58;;;203.88;;
23995;SDS011;12207;50.076;8.848;2022-08-03T06:19:00;506.55;;;196.88;;
23995;SDS011;12207;50.076;8.848;2022-08-03T06:21:26;484.67;;;192.07;;
23995;SDS011;12207;50.076;8.848;2022-08-03T06:23:53;479.00;;;189.88;;
23995;SDS011;12207;50.076;8.848;2022-08-03T06:26:20;471.60;;;194.63;;
23995;SDS011;12207;50.076;8.848;2022-08-03T06:28:51;448.05;;;193.77;;
23995;SDS011;12207;50.076;8.848;2022-08-03T06:31:19;512.83;;;200.55;;
23995;SDS011;12207;50.076;8.848;2022-08-03T06:33:51;471.85;;;197.13;;
23995;SDS011;12207;50.076;8.848;2022-08-03T06:36:18;455.25;;;186.05;;
23995;SDS011;12207;50.076;8.848;2022-08-03T06:38:45;496.98;;;193.90;;
23995;SDS011;12207;50.076;8.848;2022-08-03T06:41:11;600.55;;;202.45;;
23995;SDS011;12207;50.076;8.848;2022-08-03T06:43:39;488.30;;;193.60;;
23995;SDS011;12207;50.076;8.848;2022-08-03T06:46:06;496.52;;;192.00;;
23995;SDS011;12207;50.076;8.848;2022-08-03T06:48:33;490.88;;;192.88;;
23995;SDS011;12207;50.076;8.848;2022-08-03T06:51:00;527.03;;;203.02;;
23995;SDS011;12207;50.076;8.848;2022-08-03T06:53:27;484.30;;;179.38;;
23995;SDS011;12207;50.076;8.848;2022-08-03T06:55:53;464.17;;;181.70;;
23995;SDS011;12207;50.076;8.848;2022-08-03T06:58:20;441.70;;;177.60;;
23995;SDS011;12207;50.076;8.848;2022-08-03T07:00:47;404.40;;;168.85;;
23995;SDS011;12207;50.076;8.848;2022-08-03T07:03:14;443.58;;;168.13;;
23995;SDS011;12207;50.076;8.848;2022-08-03T07:05:41;479.13;;;169.23;;
23995;SDS011;12207;50.076;8.848;2022-08-03T07:08:11;426.50;;;164.85;;
23995;SDS011;12207;50.076;8.848;2022-08-03T07:10:38;484.48;;;170.68;;
23995;SDS011;12207;50.076;8.848;2022-08-03T07:13:05;483.98;;;165.77;;
23995;SDS011;12207;50.076;8.848;2022-08-03T07:15:32;446.40;;;163.68;;
23995;SDS011;12207;50.076;8.848;2022-08-03T07:17:59;499.90;;;172.48;;
23995;SDS011;12207;50.076;8.848;2022-08-03T07:20:26;457.17;;;166.73;;
23995;SDS011;12207;50.076;8.848;2022-08-03T07:22:53;408.50;;;160.45;;
23995;SDS011;12207;50.076;8.848;2022-08-03T07:25:20;426.25;;;167.02;;
23995;SDS011;12207;50.076;8.848;2022-08-03T07:27:47;405.50;;;154.77;;
23995;SDS011;12207;50.076;8.848;2022-08-03T07:30:14;420.15;;;155.23;;
23995;SDS011;12207;50.076;8.848;2022-08-03T07:32:41;429.60;;;162.00;;
23995;SDS011;12207;50.076;8.848;2022-08-03T07:35:09;460.80;;;158.50;;
23995;SDS011;12207;50.076;8.848;2022-08-03T07:37:36;507.63;;;170.45;;
23995;SDS011;12207;50.076;8.848;2022-08-03T07:40:04;502.30;;;168.40;;
23995;SDS011;12207;50.076;8.848;2022-08-03T07:42:31;469.38;;;172.57;;
23995;SDS011;12207;50.076;8.848;2022-08-03T07:44:58;414.08;;;165.00;;
23995;SDS011;12207;50.076;8.848;2022-08-03T07:47:26;467.63;;;174.00;;
23995;SDS011;12207;50.076;8.848;2022-08-03T07:49:54;437.00;;;175.43;;
23995;SDS011;12207;50.076;8.848;2022-08-03T07:52:21;425.05;;;187.43;;
23995;SDS011;12207;50.076;8.848;2022-08-03T07:55:07;485.23;;;177.50;;
23995;SDS011;12207;50.076;8.848;2022-08-03T07:57:35;529.08;;;194.05;;
23995;SDS011;12207;50.076;8.848;2022-08-03T08:00:03;500.55;;;192.55;;
23995;SDS011;12207;50.076;8.848;2022-08-03T08:02:33;519.20;;;203.32;;
23995;SDS011;12207;50.076;8.848;2022-08-03T08:05:00;514.97;;;212.05;;
23995;SDS011;12207;50.076;8.848;2022-08-03T08:07:27;559.47;;;214.35;;
23995;SDS011;12207;50.076;8.848;2022-08-03T08:09:54;559.60;;;205.02;;
23995;SDS011;12207;50.076;8.848;2022-08-03T08:12:21;542.22;;;211.32;;
23995;SDS011;12207;50.076;8.848;2022-08-03T08:14:48;574.97;;;211.60;;
23995;SDS011;12207;50.076;8.848;2022-08-03T08:17:15;569.85;;;204.95;;
23995;SDS011;12207;50.076;8.848;2022-08-03T08:19:41;556.90;;;203.27;;
23995;SDS011;12207;50.076;8.848;2022-08-03T08:22:08;608.22;;;207.50;;
23995;SDS011;12207;50.076;8.848;2022-08-03T08:24:35;606.78;;;208.80;;
23995;SDS011;12207;50.076;8.848;2022-08-03T08:27:01;558.25;;;205.45;;
23995;SDS011;12207;50.076;8.848;2022-08-03T08:29:28;558.72;;;208.45;;
23995;SDS011;12207;50.076;8.848;2022-08-03T08:31:55;528.25;;;203.40;;
23995;SDS011;12207;50.076;8.848;2022-08-03T08:34:24;507.10;;;198.55;;
23995;SDS011;12207;50.076;8.848;2022-08-03T08:36:51;480.35;;;192.15;;
23995;SDS011;12207;50.076;8.848;2022-08-03T08:39:18;487.85;;;191.50;;
23995;SDS011;12207;50.076;8.848;2022-08-03T08:41:45;526.80;;;188.35;;
23995;SDS011;12207;50.076;8.848;2022-08-03T08:44:15;541.42;;;192.45;;
23995;SDS011;12207;50.076;8.848;2022-08-03T08:46:41;524.33;;;185.35;;
23995;SDS011;12207;50.076;8.848;2022-08-03T08:49:09;545.63;;;192.05;;
23995;SDS011;12207;50.076;8.848;2022-08-03T08:51:41;558.25;;;190.25;;
23995;SDS011;12207;50.076;8.848;2022-08-03T08:54:12;566.60;;;193.75;;
23995;SDS011;12207;50.076;8.848;2022-08-03T08:56:41;572.65;;;192.40;;
23995;SDS011;12207;50.076;8.848;2022-08-03T08:59:09;574.15;;;195.50;;
23995;SDS011;12207;50.076;8.848;2022-08-03T09:01:36;603.50;;;204.55;;
23995;SDS011;12207;50.076;8.848;2022-08-03T09:04:05;589.47;;;203.20;;
23995;SDS011;12207;50.076;8.848;2022-08-03T09:06:32;587.65;;;194.30;;
23995;SDS011;12207;50.076;8.848;2022-08-03T09:08:58;609.42;;;208.70;;
23995;SDS011;12207;50.076;8.848;2022-08-03T09:11:25;565.45;;;198.35;;
23995;SDS011;12207;50.076;8.848;2022-08-03T09:13:52;578.53;;;204.52;;
23995;SDS011;12207;50.076;8.848;2022-08-03T09:16:21;537.20;;;194.50;;
23995;SDS011;12207;50.076;8.848;2022-08-03T09:18:49;579.03;;;200.05;;
23995;SDS011;12207;50.076;8.848;2022-08-03T09:21:27;646.90;;;212.68;;
23995;SDS011;12207;50.076;8.848;2022-08-03T09:23:54;566.80;;;199.35;;
23995;SDS011;12207;50.076;8.848;2022-08-03T09:26:26;560.17;;;207.60;;
23995;SDS011;12207;50.076;8.848;2022-08-03T09:28:55;589.00;;;215.40;;
23995;SDS011;12207;50.076;8.848;2022-08-03T09:33:59;608.83;;;214.27;;
23995;SDS011;12207;50.076;8.848;2022-08-03T09:39:24;589.42;;;215.60;;
23995;SDS011;12207;50.076;8.848;2022-08-03T09:42:03;559.08;;;207.63;;
23995;SDS011;12207;50.076;8.848;2022-08-03T09:44:37;609.55;;;215.57;;
23995;SDS011;12207;50.076;8.848;2022-08-03T09:47:07;603.88;;;226.07;;
23995;SDS011;12207;50.076;8.848;2022-08-03T09:49:35;613.08;;;217.52;;
23995;SDS011;12207;50.076;8.848;2022-08-03T09:52:16;611.30;;;229.85;;
23995;SDS011;12207;50.076;8.848;2022-08-03T09:54:44;562.03;;;220.68;;
23995;SDS011;12207;50.076;8.848;2022-08-03T09:57:20;579.50;;;215.45;;
23995;SDS011;12207;50.076;8.848;2022-08-03T09:59:52;565.28;;;218.82;;
23995;SDS011;12207;50.076;8.848;2022-08-03T10:02:29;612.40;;;216.32;;
23995;SDS011;12207;50.076;8.848;2022-08-03T10:04:56;603.20;;;221.15;;
23995;SDS011;12207;50.076;8.848;2022-08-03T10:07:23;535.85;;;218.52;;
23995;SDS011;12207;50.076;8.848;2022-08-03T10:09:57;524.75;;;216.13;;
23995;SDS011;12207;50.076;8.848;2022-08-03T10:12:25;590.30;;;223.80;;
23995;SDS011;12207;50.076;8.848;2022-08-03T10:14:54;579.97;;;237.57;;
23995;SDS011;12207;50.076;8.848;2022-08-03T10:17:21;566.22;;;220.73;;
23995;SDS011;12207;50.076;8.848;2022-08-03T10:19:49;566.88;;;222.52;;
23995;SDS011;12207;50.076;8.848;2022-08-03T10:22:21;580.28;;;227.68;;
23995;SDS011;12207;50.076;8.848;2022-08-03T10:27:24;551.38;;;217.20;;
23995;SDS011;12207;50.076;8.848;2022-08-03T10:29:56;577.10;;;219.40;;
23995;SDS011;12207;50.076;8.848;2022-08-03T10:33:00;597.08;;;222.50;;
23995;SDS011;12207;50.076;8.848;2022-08-03T10:35:24;546.47;;;216.32;;
23995;SDS011;12207;50.076;8.848;2022-08-03T10:37:57;536.80;;;223.50;;
23995;SDS011;12207;50.076;8.848;2022-08-03T10:40:31;616.72;;;231.30;;
23995;SDS011;12207;50.076;8.848;2022-08-03T10:42:58;586.42;;;230.95;;
23995;SDS011;12207;50.076;8.848;2022-08-03T10:45:32;586.40;;;232.73;;
23995;SDS011;12207;50.076;8.848;2022-08-03T10:48:05;591.78;;;238.25;;
23995;SDS011;12207;50.076;8.848;2022-08-03T10:50:32;622.65;;;229.50;;
23995;SDS011;12207;50.076;8.848;2022-08-03T10:53:01;579.33;;;230.75;;
23995;SDS011;12207;50.076;8.848;2022-08-03T10:55:33;539.33;;;221.10;;
23995;SDS011;12207;50.076;8.848;2022-08-03T11:01:07;554.97;;;224.13;;
23995;SDS011;12207;50.076;8.848;2022-08-03T11:04:12;571.38;;;223.57;;
23995;SDS011;12207;50.076;8.848;2022-08-03T11:06:28;546.08;;;225.55;;
23995;SDS011;12207;50.076;8.848;2022-08-03T11:11:41;548.10;;;224.32;;
23995;SDS011;12207;50.076;8.848;2022-08-03T11:14:14;581.97;;;225.73;;
23995;SDS011;12207;50.076;8.848;2022-08-03T11:16:43;542.70;;;227.70;;
23995;SDS011;12207;50.076;8.848;2022-08-03T11:19:18;540.03;;;232.00;;
23995;SDS011;12207;50.076;8.848;2022-08-03T11:27:32;532.13;;;239.23;;
23995;SDS011;12207;50.076;8.848;2022-08-03T11:30:09;587.05;;;242.95;;
23995;SDS011;12207;50.076;8.848;2022-08-03T11:32:55;574.53;;;239.30;;
23995;SDS011;12207;50.076;8.848;2022-08-03T11:40:33;555.22;;;240.82;;
23995;SDS011;12207;50.076;8.848;2022-08-03T11:45:56;554.25;;;240.60;;
23995;SDS011;12207;50.076;8.848;2022-08-03T11:48:28;562.63;;;248.25;;
23995;SDS011;12207;50.076;8.848;2022-08-03T11:51:03;577.70;;;234.23;;
23995;SDS011;12207;50.076;8.848;2022-08-03T11:53:54;514.58;;;228.80;;
23995;SDS011;12207;50.076;8.848;2022-08-03T11:56:23;522.25;;;235.98;;
23995;SDS011;12207;50.076;8.848;2022-08-03T11:58:50;488.83;;;227.43;;
23995;SDS011;12207;50.076;8.848;2022-08-03T12:01:20;667.85;;;247.02;;
23995;SDS011;12207;50.076;8.848;2022-08-03T12:03:48;552.05;;;226.27;;
23995;SDS011;12207;50.076;8.848;2022-08-03T12:06:16;553.30;;;239.38;;
23995;SDS011;12207;50.076;8.848;2022-08-03T12:08:44;507.40;;;234.80;;
23995;SDS011;12207;50.076;8.848;2022-08-03T12:11:12;612.45;;;243.60;;
23995;SDS011;12207;50.076;8.848;2022-08-03T12:16:08;587.85;;;239.82;;
23995;SDS011;12207;50.076;8.848;2022-08-03T12:18:41;547.20;;;229.25;;
23995;SDS011;12207;50.076;8.848;2022-08-03T12:21:08;652.55;;;244.55;;
23995;SDS011;12207;50.076;8.848;2022-08-03T12:23:37;575.25;;;236.98;;
23995;SDS011;12207;50.076;8.848;2022-08-03T12:26:07;571.42;;;231.70;;
23995;SDS011;12207;50.076;8.848;2022-08-03T12:28:34;578.80;;;240.43;;
23995;SDS011;12207;50.076;8.848;2022-08-03T12:31:02;599.05;;;246.88;;
23995;SDS011;12207;50.076;8.848;2022-08-03T12:36:23;526.97;;;230.85;;
23995;SDS011;12207;50.076;8.848;2022-08-03T12:39:01;544.13;;;236.52;;
23995;SDS011;12207;50.076;8.848;2022-08-03T12:41:34;674.17;;;244.73;;
23995;SDS011;12207;50.076;8.848;2022-08-03T12:44:02;603.40;;;236.98;;
23995;SDS011;12207;50.076;8.848;2022-08-03T12:46:34;589.80;;;236.73;;
23995;SDS011;12207;50.076;8.848;2022-08-03T12:49:09;606.00;;;248.68;;
23995;SDS011;12207;50.076;8.848;2022-08-03T12:54:08;628.03;;;241.82;;
23995;SDS011;12207;50.076;8.848;2022-08-03T12:56:57;554.00;;;229.68;;
23995;SDS011;12207;50.076;8.848;2022-08-03T12:59:31;574.30;;;232.35;;
23995;SDS011;12207;50.076;8.848;2022-08-03T13:02:00;624.10;;;239.05;;
23995;SDS011;12207;50.076;8.848;2022-08-03T13:04:28;590.88;;;235.85;;
23995;SDS011;12207;50.076;8.848;2022-08-03T13:07:01;611.58;;;242.18;;
23995;SDS011;12207;50.076;8.848;2022-08-03T13:09:47;587.42;;;235.32;;
23995;SDS011;12207;50.076;8.848;2022-08-03T13:14:44;557.95;;;241.20;;
23995;SDS011;12207;50.076;8.848;2022-08-03T13:17:15;603.40;;;243.48;;
23995;SDS011;12207;50.076;8.848;2022-08-03T13:19:42;566.72;;;242.27;;
23995;SDS011;12207;50.076;8.848;2022-08-03T13:22:11;543.50;;;238.15;;
23995;SDS011;12207;50.076;8.848;2022-08-03T13:24:40;579.67;;;238.80;;
23995;SDS011;12207;50.076;8.848;2022-08-03T13:27:07;592.85;;;239.63;;
23995;SDS011;12207;50.076;8.848;2022-08-03T13:29:34;586.97;;;243.00;;
23995;SDS011;12207;50.076;8.848;2022-08-03T13:32:01;589.83;;;233.00;;
23995;SDS011;12207;50.076;8.848;2022-08-03T13:34:30;603.88;;;236.55;;
23995;SDS011;12207;50.076;8.848;2022-08-03T13:36:56;590.58;;;243.90;;
23995;SDS011;12207;50.076;8.848;2022-08-03T13:39:23;553.25;;;245.15;;
23995;SDS011;12207;50.076;8.848;2022-08-03T13:41:50;549.95;;;243.13;;
23995;SDS011;12207;50.076;8.848;2022-08-03T13:44:17;543.35;;;236.18;;
23995;SDS011;12207;50.076;8.848;2022-08-03T13:46:45;567.67;;;247.20;;
23995;SDS011;12207;50.076;8.848;2022-08-03T13:49:12;547.88;;;249.70;;
23995;SDS011;12207;50.076;8.848;2022-08-03T13:51:39;649.17;;;258.77;;
23995;SDS011;12207;50.076;8.848;2022-08-03T13:54:06;581.38;;;250.63;;
23995;SDS011;12207;50.076;8.848;2022-08-03T13:56:33;574.58;;;245.40;;
23995;SDS011;12207;50.076;8.848;2022-08-03T13:58:59;591.72;;;254.23;;
23995;SDS011;12207;50.076;8.848;2022-08-03T14:01:26;606.75;;;246.40;;
23995;SDS011;12207;50.076;8.848;2022-08-03T14:03:53;550.53;;;247.85;;
23995;SDS011;12207;50.076;8.848;2022-08-03T14:06:21;530.05;;;239.60;;
23995;SDS011;12207;50.076;8.848;2022-08-03T14:08:49;577.58;;;245.60;;
23995;SDS011;12207;50.076;8.848;2022-08-03T14:11:16;631.42;;;248.45;;
23995;SDS011;12207;50.076;8.848;2022-08-03T14:13:43;532.40;;;247.65;;
23995;SDS011;12207;50.076;8.848;2022-08-03T14:16:10;574.85;;;258.52;;
23995;SDS011;12207;50.076;8.848;2022-08-03T14:18:37;576.53;;;261.63;;
23995;SDS011;12207;50.076;8.848;2022-08-03T14:21:04;614.45;;;253.73;;
23995;SDS011;12207;50.076;8.848;2022-08-03T14:23:31;584.65;;;251.00;;
23995;SDS011;12207;50.076;8.848;2022-08-03T14:25:59;571.30;;;249.88;;
23995;SDS011;12207;50.076;8.848;2022-08-03T14:28:25;542.47;;;248.23;;
23995;SDS011;12207;50.076;8.848;2022-08-03T14:30:53;528.45;;;243.35;;
23995;SDS011;12207;50.076;8.848;2022-08-03T14:33:20;553.20;;;244.98;;
23995;SDS011;12207;50.076;8.848;2022-08-03T14:35:48;558.03;;;246.50;;
23995;SDS011;12207;50.076;8.848;2022-08-03T14:38:15;546.40;;;242.98;;
23995;SDS011;12207;50.076;8.848;2022-08-03T14:40:43;530.75;;;246.15;;
23995;SDS011;12207;50.076;8.848;2022-08-03T14:43:10;572.40;;;255.25;;
23995;SDS011;12207;50.076;8.848;2022-08-03T14:45:38;584.22;;;262.25;;
23995;SDS011;12207;50.076;8.848;2022-08-03T14:48:05;563.85;;;250.52;;
23995;SDS011;12207;50.076;8.848;2022-08-03T14:50:33;614.53;;;261.98;;
23995;SDS011;12207;50.076;8.848;2022-08-03T14:53:00;584.67;;;253.00;;
23995;SDS011;12207;50.076;8.848;2022-08-03T14:55:26;586.78;;;250.52;;
23995;SDS011;12207;50.076;8.848;2022-08-03T14:57:53;551.35;;;242.90;;
23995;SDS011;12207;50.076;8.848;2022-08-03T15:00:21;554.28;;;245.00;;
23995;SDS011;12207;50.076;8.848;2022-08-03T15:02:48;554.28;;;238.45;;
23995;SDS011;12207;50.076;8.848;2022-08-03T15:05:15;541.78;;;243.82;;
23995;SDS011;12207;50.076;8.848;2022-08-03T15:07:42;550.80;;;250.43;;